createdAt,value
2022-08-29T00:03:10.098Z,23.96
2022-08-29T00:08:13.265Z,22.88
2022-08-29T00:13:16.194Z,22.50
2022-08-29T00:18:20.588Z,22.75
2022-08-29T00:23:23.121Z,23.59
2022-08-29T00:28:25.744Z,23.81
2022-08-29T00:33:29.073Z,23.81
2022-08-29T00:38:31.716Z,23.58
2022-08-29T00:43:36.441Z,23.28
2022-08-29T00:48:40.799Z,23.51
2022-08-29T00:53:45.860Z,23.56
2022-08-29T00:58:57.735Z,23.71
2022-08-29T01:04:00.749Z,23.80
2022-08-29T01:09:05.480Z,23.65
2022-08-29T01:14:09.123Z,23.16
2022-08-29T01:19:34.614Z,22.96
2022-08-29T01:24:40.295Z,22.73
2022-08-29T01:29:43.423Z,21.54
2022-08-29T01:34:46.063Z,20.43
2022-08-29T01:39:48.652Z,20.16
2022-08-29T01:44:53.559Z,21.20
2022-08-29T01:49:57.125Z,22.26
2022-08-29T01:54:59.955Z,22.75
2022-08-29T02:00:04.325Z,22.86
2022-08-29T02:05:07.726Z,23.09
2022-08-29T02:10:10.694Z,23.23
2022-08-29T02:15:13.682Z,22.70
2022-08-29T02:20:16.893Z,23.08
2022-08-29T02:25:38.132Z,22.75
2022-08-29T02:30:46.262Z,22.39
2022-08-29T02:35:53.474Z,22.75
2022-08-29T02:40:56.220Z,22.82
2022-08-29T02:45:59.639Z,22.91
2022-08-29T02:51:02.091Z,22.91
2022-08-29T02:56:04.580Z,23.00
2022-08-29T03:01:10.657Z,23.20
2022-08-29T03:06:13.731Z,23.12
2022-08-29T03:11:17.288Z,22.92
2022-08-29T03:16:19.834Z,22.82
2022-08-29T03:21:25.309Z,22.78
2022-08-29T03:26:28.036Z,22.10
2022-08-29T03:31:31.217Z,22.20
2022-08-29T03:36:34.282Z,22.67
2022-08-29T03:41:36.870Z,22.89
2022-08-29T03:46:39.752Z,23.04
2022-08-29T03:51:42.502Z,23.03
2022-08-29T03:56:46.193Z,22.66
2022-08-29T04:01:49.272Z,22.65
2022-08-29T04:06:52.135Z,22.74
2022-08-29T04:11:54.767Z,22.92
2022-08-29T04:16:58.188Z,22.52
2022-08-29T04:22:00.935Z,22.50
2022-08-29T04:27:03.543Z,22.74
2022-08-29T04:32:06.136Z,22.34
2022-08-29T04:37:08.725Z,21.67
2022-08-29T04:42:15.113Z,22.47
2022-08-29T04:47:22.284Z,22.60
2022-08-29T04:52:26.337Z,21.68
2022-08-29T04:57:28.880Z,20.18
2022-08-29T05:02:31.496Z,21.40
2022-08-29T05:07:34.123Z,22.09
2022-08-29T05:12:40.962Z,22.53
2022-08-29T05:17:44.231Z,22.27
2022-08-29T05:22:47.189Z,22.08
2022-08-29T05:27:49.620Z,21.74
2022-08-29T05:32:52.379Z,21.78
2022-08-29T05:37:55.133Z,22.39
2022-08-29T05:42:57.714Z,21.52
2022-08-29T05:48:05.016Z,22.14
2022-08-29T05:53:08.902Z,22.72
2022-08-29T05:58:12.663Z,22.53
2022-08-29T06:03:15.658Z,22.74
2022-08-29T06:08:19.331Z,21.39
2022-08-29T06:13:21.824Z,22.49
2022-08-29T06:18:34.461Z,23.50
2022-08-29T06:23:40.543Z,23.55
2022-08-29T06:28:46.066Z,23.43
2022-08-29T06:33:52.197Z,23.39
2022-08-29T06:39:02.946Z,24.10
2022-08-29T06:44:06.396Z,24.39
2022-08-29T06:49:11.434Z,24.41
2022-08-29T06:54:14.856Z,24.76
2022-08-29T06:59:19.028Z,24.07
2022-08-29T07:04:21.620Z,24.31
2022-08-29T07:09:26.204Z,24.02
2022-08-29T07:14:28.909Z,24.45
2022-08-29T07:19:31.424Z,25.07
2022-08-29T07:24:34.383Z,25.51
2022-08-29T07:29:36.833Z,25.66
2022-08-29T07:34:39.388Z,25.73
2022-08-29T07:39:41.864Z,26.15
2022-08-29T07:44:44.549Z,26.34
2022-08-29T07:49:47.459Z,26.68
2022-08-29T07:54:49.948Z,26.99
2022-08-29T07:59:52.574Z,27.11
2022-08-29T08:04:55.073Z,27.45
2022-08-29T08:09:57.662Z,27.42
2022-08-29T08:15:00.956Z,27.73
2022-08-29T08:20:07.318Z,28.25
2022-08-29T08:25:10.098Z,29.02
2022-08-29T08:30:13.480Z,29.15
2022-08-29T08:35:16.429Z,29.37
2022-08-29T08:40:26.712Z,29.32
2022-08-29T08:45:38.287Z,30.07
2022-08-29T08:50:43.639Z,29.93
2022-08-29T08:55:49.824Z,29.84
2022-08-29T09:00:58.610Z,30.64
2022-08-29T09:06:06.156Z,30.92
2022-08-29T09:11:38.569Z,31.73
2022-08-29T09:16:46.427Z,31.52
2022-08-29T09:21:55.445Z,32.27
2022-08-29T09:26:58.068Z,32.85
2022-08-29T09:32:16.578Z,32.15
2022-08-29T09:37:28.944Z,32.00
2022-08-29T09:42:36.729Z,32.77
2022-08-29T09:47:39.937Z,33.06
2022-08-29T09:52:56.442Z,34.75
2022-08-29T09:58:02.010Z,35.06
2022-08-29T10:03:09.070Z,34.06
2022-08-29T10:08:31.284Z,34.70
2022-08-29T10:13:50.280Z,35.02
2022-08-29T10:19:01.427Z,33.95
2022-08-29T10:24:24.742Z,34.55
2022-08-29T10:29:31.823Z,35.12
2022-08-29T10:35:06.044Z,35.76
2022-08-29T10:40:43.273Z,35.61
2022-08-29T10:46:23.874Z,35.71
2022-08-29T10:51:40.366Z,35.47
2022-08-29T10:56:46.528Z,35.80
2022-08-29T11:02:03.172Z,35.48
2022-08-29T11:07:16.420Z,35.05
2022-08-29T11:12:25.128Z,35.31
2022-08-29T11:17:40.867Z,36.07
2022-08-29T11:22:53.222Z,34.95
2022-08-29T11:28:04.141Z,35.27
2022-08-29T11:33:37.711Z,36.31
2022-08-29T11:38:55.471Z,36.19
2022-08-29T11:44:34.664Z,35.83
2022-08-29T11:49:48.654Z,36.39
2022-08-29T11:55:28.530Z,38.51
2022-08-29T12:00:45.035Z,38.54
2022-08-29T12:05:58.008Z,37.75
2022-08-29T12:11:01.726Z,37.49
2022-08-29T12:16:11.628Z,37.11
2022-08-29T12:21:39.301Z,32.25
2022-08-29T12:26:44.995Z,31.13
2022-08-29T12:32:22.245Z,30.33
2022-08-29T12:37:40.978Z,29.76
2022-08-29T12:43:06.681Z,29.37
2022-08-29T12:48:15.697Z,29.83
2022-08-29T12:53:25.479Z,29.43
2022-08-29T12:58:41.812Z,29.16
2022-08-29T13:03:59.424Z,29.30
2022-08-29T13:09:06.218Z,28.90
2022-08-29T13:14:12.044Z,30.18
2022-08-29T13:19:25.023Z,35.44
2022-08-29T13:24:27.683Z,35.44
2022-08-29T13:29:39.900Z,36.19
2022-08-29T13:35:21.144Z,37.72
2022-08-29T13:40:36.728Z,37.34
2022-08-29T13:45:39.877Z,36.95
2022-08-29T13:50:42.513Z,37.80
2022-08-29T13:55:45.282Z,37.81
2022-08-29T14:00:47.832Z,37.71
2022-08-29T14:05:56.437Z,38.21
2022-08-29T14:10:59.315Z,37.97
2022-08-29T14:16:02.330Z,33.26
2022-08-29T14:21:05.060Z,32.61
2022-08-29T14:26:08.740Z,33.70
2022-08-29T14:31:11.582Z,33.48
2022-08-29T14:36:14.149Z,30.53
2022-08-29T14:41:17.006Z,31.83
2022-08-29T14:46:51.728Z,34.28
2022-08-29T14:51:54.564Z,34.29
2022-08-29T14:57:07.209Z,34.01
2022-08-29T15:02:10.749Z,33.27
2022-08-29T15:07:14.125Z,32.91
2022-08-29T15:12:21.669Z,33.64
2022-08-29T15:17:25.405Z,34.57
2022-08-29T15:22:28.323Z,33.63
2022-08-29T15:27:31.445Z,32.87
2022-08-29T15:32:34.690Z,32.44
2022-08-29T15:37:37.787Z,31.67
2022-08-29T15:42:40.372Z,31.27
2022-08-29T15:47:46.446Z,31.70
2022-08-29T15:52:49.024Z,30.88
2022-08-29T15:57:52.825Z,30.24
2022-08-29T16:02:55.785Z,29.64
2022-08-29T16:07:58.245Z,29.48
2022-08-29T16:13:00.982Z,29.31
2022-08-29T16:18:04.579Z,29.40
2022-08-29T16:23:07.545Z,29.28
2022-08-29T16:28:10.066Z,29.17
2022-08-29T16:33:12.612Z,29.15
2022-08-29T16:38:15.382Z,29.19
2022-08-29T16:43:18.460Z,29.15
2022-08-29T16:48:20.978Z,28.94
2022-08-29T16:53:23.631Z,28.40
2022-08-29T16:58:44.668Z,28.20
2022-08-29T17:03:47.332Z,28.13
2022-08-29T17:08:49.771Z,27.99
2022-08-29T17:13:55.380Z,27.89
2022-08-29T17:18:57.921Z,27.86
2022-08-29T17:24:02.319Z,27.85
2022-08-29T17:29:06.644Z,27.82
2022-08-29T17:34:10.412Z,27.73
2022-08-29T17:39:13.059Z,27.70
2022-08-29T17:44:15.539Z,27.64
2022-08-29T17:49:18.342Z,27.67
2022-08-29T17:54:23.003Z,27.53
2022-08-29T17:59:27.880Z,27.59
2022-08-29T18:04:30.387Z,27.57
2022-08-29T18:09:32.983Z,27.49
2022-08-29T18:14:35.696Z,27.42
2022-08-29T18:19:38.692Z,27.35
2022-08-29T18:24:41.098Z,27.33
2022-08-29T18:29:45.350Z,27.23
2022-08-29T18:34:48.228Z,27.21
2022-08-29T18:39:50.719Z,27.15
2022-08-29T18:44:54.631Z,27.10
2022-08-29T18:50:15.707Z,27.07
2022-08-29T18:55:18.311Z,27.00
2022-08-29T19:00:22.504Z,26.69
2022-08-29T19:05:26.855Z,26.49
2022-08-29T19:10:31.870Z,26.45
2022-08-29T19:15:41.235Z,26.18
2022-08-29T19:21:02.585Z,26.24
2022-08-29T19:26:09.983Z,26.47
2022-08-29T19:31:14.491Z,26.60
2022-08-29T19:36:20.828Z,26.72
2022-08-29T19:41:24.029Z,25.93
2022-08-29T19:46:27.731Z,25.81
2022-08-29T19:51:32.812Z,26.40
2022-08-29T19:56:36.207Z,26.57
2022-08-29T20:01:40.133Z,26.64
2022-08-29T20:06:42.662Z,26.61
2022-08-29T20:11:46.507Z,26.58
2022-08-29T20:16:49.374Z,26.53
2022-08-29T20:21:53.054Z,26.44
2022-08-29T20:26:55.549Z,25.83
2022-08-29T20:32:00.038Z,26.23
2022-08-29T20:37:14.139Z,26.15
2022-08-29T20:42:20.384Z,25.74
2022-08-29T20:47:24.317Z,25.74
2022-08-29T20:52:26.888Z,25.86
2022-08-29T20:57:29.827Z,26.15
2022-08-29T21:02:51.244Z,26.26
2022-08-29T21:07:53.759Z,26.16
2022-08-29T21:12:56.203Z,26.10
2022-08-29T21:17:59.176Z,26.15
2022-08-29T21:23:04.106Z,26.18
2022-08-29T21:28:07.247Z,26.07
2022-08-29T21:33:10.827Z,26.24
2022-08-29T21:38:13.376Z,26.30
2022-08-29T21:43:16.010Z,26.28
2022-08-29T21:48:18.564Z,26.11
2022-08-29T21:53:21.194Z,26.13
2022-08-29T21:58:23.636Z,25.91
2022-08-29T22:03:26.282Z,25.36
2022-08-29T22:08:28.934Z,25.66
2022-08-29T22:13:31.450Z,25.92
2022-08-29T22:18:34.053Z,25.96
2022-08-29T22:23:36.601Z,25.61
2022-08-29T22:28:39.199Z,25.69
2022-08-29T22:33:42.139Z,25.55
2022-08-29T22:38:46.764Z,25.62
2022-08-29T22:44:11.367Z,25.30
2022-08-29T22:49:16.250Z,25.29
2022-08-29T22:54:37.582Z,25.07
2022-08-29T22:59:41.574Z,24.86
2022-08-29T23:04:44.279Z,24.53
2022-08-29T23:09:47.260Z,24.97
2022-08-29T23:14:49.935Z,25.15
2022-08-29T23:19:52.370Z,25.07
2022-08-29T23:24:58.350Z,24.95
2022-08-29T23:30:02.103Z,24.21
2022-08-29T23:35:07.596Z,24.45
2022-08-29T23:40:10.439Z,24.66
2022-08-29T23:45:13.032Z,24.27
2022-08-29T23:50:16.448Z,24.33
2022-08-29T23:55:18.968Z,23.93
